ESDF/RNB METAR and TAF weather

Enter ICAO airport designator
Station Type Date Time Source
ESDF METAR 2018/06/25 01:50 UTC NOAA

ESDF 250150Z AUTO 34003KT 9999 BR NCD 10/10 Q1014


Station Type Date Time Source
ESDF Decoded METAR 2018/06/25 01:50 UTC NOAA

Ronneby, Sweden (ESDF) 56-16N 015-17E 74M
Jun 24, 2018 - 09:50 PM EDT / 2018.06.25 0150 UTC
Wind: from the NNW (340 degrees) at 3 MPH (3 KT):0
Visibility: greater than 7 mile(s):0
Weather: mist
Temperature: 50 F (10 C)
Dew Point: 50 F (10 C)
Relative Humidity: 100%
Pressure (altimeter): 29.94 in. Hg (1014 hPa)
ob: ESDF 250150Z AUTO 34003KT 9999 BR NCD 10/10 Q1014
cycle: 2

Station Type Date Time Source
ESDF TAF 2018/05/29 12:27 UTC NOAA

TAF TAF ESDF 291425Z 2912/2924 07008KT CAVOK
RMK MIL


Example: see airport list